

Wyoming Mesonet
Water Resources Data System and State Climate Office
SEO WACNet, UW USACE UMRB, USDA-ARS, BLM
| Wind | Soil | |||||||||||||||||||
| Temp | Precip | Speed | Dir | Gust | Dir | Humidity | Pressure | Solar | Snow | Temperature (Deg F) | Moisture (%) | |||||||||
| Date Time (MST) | (F) | (in) | (mph) | (deg) | (mph) | (deg) | (%) | (Mbars) | (w/m^2) | (in) | 5cm | 10cm | 20cm | 50cm | 1m | 5cm | 10cm | 20cm | 50cm | 1m |
| 2026-08-30 00:00:00 | 58.91 | 0.00 | 0.60 | 321 | 5.59 | 25 | 79.6 | 874.0 | 0.0 | -0.2 | 69.98 | 70.52 | 69.44 | 65.66 | 62.96 | 4.5% | 14.6% | 15.4% | 10.5% | 23.6% |
| 2026-08-30 01:00:00 | 57.63 | 0.00 | 1.60 | 338 | 5.59 | 334 | 80.7 | 873.0 | 0.0 | -0.1 | 69.26 | 69.98 | 69.26 | 65.66 | 62.96 | 4.5% | 14.6% | 15.3% | 10.6% | 23.6% |
| 2026-08-30 02:00:00 | 58.23 | 0.00 | 3.47 | 14 | 6.96 | 30 | 82.4 | 874.0 | 0.0 | -0.2 | 68.72 | 69.44 | 69.08 | 65.84 | 62.96 | 4.5% | 14.6% | 15.3% | 10.5% | 23.5% |
| 2026-08-30 03:00:00 | 55.44 | 0.00 | 3.19 | 24 | 5.72 | 338 | 84.2 | 874.0 | 0.0 | -0.2 | 68.00 | 69.08 | 68.90 | 65.84 | 62.96 | 4.5% | 14.6% | 15.3% | 10.5% | 23.5% |
| 2026-08-30 04:00:00 | 56.73 | 0.00 | 3.15 | 353 | 6.34 | 0 | 83.2 | 874.0 | 0.0 | -0.1 | 67.64 | 68.54 | 68.90 | 65.84 | 62.96 | 4.5% | 14.6% | 15.2% | 10.5% | 23.6% |
| 2026-08-30 05:00:00 | 57.15 | 0.00 | 2.96 | 301 | 6.21 | 271 | 84.2 | 875.0 | 0.0 | -0.1 | 67.10 | 68.18 | 68.72 | 65.84 | 62.96 | 4.5% | 14.5% | 15.2% | 10.6% | 23.6% |
| 2026-08-30 06:00:00 | 55.40 | 0.00 | 2.15 | 310 | 5.22 | 20 | 87.4 | 875.0 | 21.9 | -0.1 | 66.92 | 67.82 | 68.36 | 65.84 | 62.96 | 4.4% | 14.5% | 15.3% | 10.7% | 23.6% |
| 2026-08-30 07:00:00 | 62.69 | 0.00 | 1.33 | 38 | 4.22 | 351 | 75.9 | 875.0 | 181.8 | -0.1 | 66.38 | 67.46 | 68.18 | 65.84 | 62.96 | 4.4% | 14.5% | 15.2% | 10.5% | 23.5% |
| 2026-08-30 08:00:00 | 72.28 | 0.00 | 5.31 | 236 | 9.07 | 208 | 55.1 | 875.0 | 473.1 | 0.0 | 66.38 | 67.28 | 68.00 | 65.84 | 62.96 | 4.4% | 14.5% | 15.2% | 10.6% | 23.6% |
| 2026-08-30 09:00:00 | 76.78 | 0.00 | 9.64 | 201 | 16.15 | 201 | 40.3 | 874.0 | 293.0 | 0.2 | 66.74 | 67.10 | 67.82 | 65.84 | 62.96 | 4.4% | 14.5% | 15.2% | 10.6% | 23.6% |
| 2026-08-30 10:00:00 | 80.11 | 0.00 | 6.49 | 192 | 12.05 | 203 | 36.5 | 875.0 | 611.5 | 0.2 | 67.64 | 67.46 | 67.64 | 65.84 | 62.96 | 4.4% | 14.5% | 15.2% | 10.6% | 23.6% |
| 2026-08-30 11:00:00 | 83.62 | 0.00 | 9.48 | 176 | 16.52 | 168 | 25.6 | 874.0 | 884.0 | 0.2 | 68.90 | 68.00 | 67.46 | 65.84 | 62.96 | 4.5% | 14.5% | 15.2% | 10.3% | 23.5% |
| 2026-08-30 12:00:00 | 84.40 | 0.00 | 11.53 | 202 | 19.75 | 202 | 24.2 | 874.0 | 1085.0 | 0.2 | 70.88 | 68.72 | 67.64 | 65.84 | 62.96 | 4.5% | 14.6% | 15.2% | 10.6% | 23.5% |
| 2026-08-30 13:00:00 | 86.31 | 0.00 | 10.82 | 215 | 24.23 | 234 | 24.7 | 874.0 | 255.6 | 0.1 | 72.50 | 69.98 | 67.64 | 65.84 | 62.96 | 4.5% | 14.6% | 15.2% | 10.5% | 23.5% |
| 2026-08-30 14:00:00 | 87.26 | 0.00 | 13.35 | 250 | 23.11 | 243 | 20.4 | 873.0 | 363.6 | 0.2 | 73.76 | 71.06 | 67.82 | 65.84 | 62.96 | 4.5% | 14.7% | 15.2% | 10.6% | 23.5% |
| 2026-08-30 15:00:00 | 63.97 | 0.00 | 30.38 | 334 | 52.93 | 334 | 62.0 | 875.0 | 354.4 | 0.0 | 73.76 | 71.60 | 68.18 | 65.84 | 63.14 | 4.5% | 14.7% | 15.2% | 10.6% | 23.6% |
| 2026-08-30 16:00:00 | 63.10 | 0.00 | 11.16 | 313 | 44.36 | 322 | 58.0 | 877.0 | 179.9 | 0.2 | 73.40 | 71.78 | 68.36 | 65.66 | 62.96 | 4.5% | 14.7% | 15.3% | 10.6% | 23.5% |
| 2026-08-30 17:00:00 | 63.12 | 0.00 | 3.78 | 223 | 21.50 | 337 | 55.4 | 877.0 | 328.4 | 0.0 | 72.68 | 71.78 | 68.72 | 65.66 | 62.96 | 4.5% | 14.6% | 15.3% | 10.5% | 23.6% |
| 2026-08-30 18:00:00 | 64.31 | 0.00 | 2.41 | 253 | 8.57 | 220 | 55.1 | 877.0 | 97.2 | -0.1 | 72.32 | 71.60 | 68.90 | 65.66 | 63.14 | 4.5% | 14.7% | 15.3% | 10.5% | 23.5% |
| 2026-08-30 19:00:00 | 55.98 | 0.00 | 1.97 | 288 | 5.22 | 317 | 71.0 | 877.0 | 0.0 | -0.2 | 71.42 | 71.24 | 68.90 | 65.66 | 62.96 | 4.5% | 14.6% | 15.3% | 10.6% | 23.6% |
| 2026-08-30 20:00:00 | 50.81 | 0.00 | 4.36 | 3 | 5.84 | 0 | 75.8 | 878.0 | 0.0 | -0.1 | 70.34 | 70.70 | 69.08 | 65.66 | 62.96 | 4.5% | 14.6% | 15.3% | 10.3% | 23.5% |
| 2026-08-30 21:00:00 | 49.93 | 0.00 | 2.25 | 272 | 5.84 | 345 | 81.9 | 878.0 | 0.0 | -0.3 | 69.26 | 69.98 | 69.08 | 65.66 | 62.96 | 4.5% | 14.6% | 15.3% | 10.5% | 23.5% |
| 2026-08-30 22:00:00 | 47.50 | 0.00 | 2.23 | 341 | 5.84 | 256 | 80.3 | 878.0 | 0.0 | -0.3 | 68.18 | 69.26 | 68.90 | 65.66 | 62.96 | 4.4% | 14.6% | 15.3% | 10.6% | 23.5% |
| 2026-08-30 23:00:00 | 45.42 | 0.00 | 1.91 | 348 | 5.09 | 330 | 80.2 | 878.0 | 0.0 | -0.3 | 67.28 | 68.54 | 68.72 | 65.66 | 63.14 | 4.4% | 14.5% | 15.2% | 10.6% | 23.6% |